createdAt,value
2018-09-17T00:00:58.083Z,100881.09
2018-09-17T00:03:29.912Z,100883.83
2018-09-17T00:06:00.561Z,100878.88
2018-09-17T00:08:32.015Z,100879.46
2018-09-17T00:11:03.637Z,100877.89
2018-09-17T00:13:34.980Z,100878.09
2018-09-17T00:16:06.556Z,100878.09
2018-09-17T00:18:37.863Z,100878.94
2018-09-17T00:21:09.433Z,100875.98
2018-09-17T00:23:40.780Z,100876.30
2018-09-17T00:26:12.388Z,100867.34
2018-09-17T00:28:43.752Z,100869.91
2018-09-17T00:31:15.314Z,100866.12
2018-09-17T00:33:46.763Z,100868.19
2018-09-17T00:36:18.208Z,100871.44
2018-09-17T00:38:49.732Z,100869.55
2018-09-17T00:41:21.290Z,100872.26
2018-09-17T00:43:52.788Z,100881.31
2018-09-17T00:46:24.285Z,100876.92
2018-09-17T00:48:55.842Z,100881.69
2018-09-17T00:51:27.310Z,100882.53
2018-09-17T00:53:58.770Z,100882.53
2018-09-17T00:56:30.303Z,100883.20
2018-09-17T00:59:01.809Z,100879.66
2018-09-17T01:01:33.419Z,100880.17
2018-09-17T01:04:05.004Z,100879.48
2018-09-17T01:06:36.673Z,100880.84
2018-09-17T01:09:12.710Z,100880.02
2018-09-17T01:11:44.268Z,100881.91
2018-09-17T01:14:15.774Z,100885.84
2018-09-17T01:16:47.376Z,100889.41
2018-09-17T01:19:18.761Z,100894.52
2018-09-17T01:21:50.204Z,100887.55
2018-09-17T01:24:21.685Z,100890.11
2018-09-17T01:26:53.196Z,100891.15
2018-09-17T01:29:24.717Z,100887.22
2018-09-17T01:31:55.765Z,100886.38
2018-09-17T01:34:26.806Z,100880.92
2018-09-17T01:36:58.330Z,100875.48
2018-09-17T01:39:29.879Z,100884.81
2018-09-17T01:42:00.609Z,100888.96
2018-09-17T01:44:32.232Z,100890.48
2018-09-17T01:47:03.815Z,100886.70
2018-09-17T01:49:35.469Z,100885.70
2018-09-17T01:52:06.880Z,100887.77
2018-09-17T01:54:37.584Z,100882.66
2018-09-17T01:57:09.221Z,100887.07
2018-09-17T01:59:40.704Z,100876.83
2018-09-17T02:04:33.671Z,100874.95
2018-09-17T02:07:04.769Z,100886.03
2018-09-17T02:09:40.235Z,100881.45
2018-09-17T02:12:13.557Z,100884.88
2018-09-17T02:14:45.222Z,100882.16
2018-09-17T02:17:16.733Z,100888.81
2018-09-17T02:19:48.434Z,100883.30
2018-09-17T02:22:19.844Z,100884.34
2018-09-17T02:24:51.441Z,100880.62
2018-09-17T02:27:22.966Z,100884.36
2018-09-17T02:29:54.552Z,100884.56
2018-09-17T02:32:25.979Z,100891.76
2018-09-17T02:34:57.669Z,100886.94
2018-09-17T02:37:29.236Z,100885.41
2018-09-17T02:40:00.811Z,100875.84
2018-09-17T02:42:32.441Z,100870.02
2018-09-17T02:45:03.857Z,100872.80
2018-09-17T02:47:35.204Z,100879.96
2018-09-17T02:50:07.673Z,100886.45
2018-09-17T02:52:39.148Z,100883.37
2018-09-17T02:55:10.812Z,100887.83
2018-09-17T02:57:42.670Z,100881.37
2018-09-17T03:00:14.202Z,100891.56
2018-09-17T03:02:45.793Z,100892.77
2018-09-17T03:05:17.499Z,100894.98
2018-09-17T03:07:49.069Z,100891.61
2018-09-17T03:10:20.736Z,100889.94
2018-09-17T03:12:52.219Z,100891.97
2018-09-17T03:15:46.820Z,100886.53
2018-09-17T03:21:01.900Z,100900.50
2018-09-17T03:23:32.579Z,100900.86
2018-09-17T03:26:04.213Z,100901.87
2018-09-17T03:28:35.434Z,100909.90
2018-09-17T03:31:06.671Z,100912.09
2018-09-17T03:33:38.482Z,100920.48
2018-09-17T03:36:10.009Z,100916.88
2018-09-17T03:38:46.743Z,100918.61
2018-09-17T03:41:18.796Z,100914.52
2018-09-17T03:43:52.014Z,100909.95
2018-09-17T03:46:22.720Z,100908.75
2018-09-17T03:48:53.685Z,100892.38
2018-09-17T03:51:25.323Z,100889.62
2018-09-17T03:53:56.795Z,100890.84
2018-09-17T03:56:28.344Z,100897.47
2018-09-17T03:58:59.795Z,100889.47
2018-09-17T04:01:31.374Z,100895.45
2018-09-17T04:04:02.785Z,100879.77
2018-09-17T04:06:34.371Z,100892.73
2018-09-17T04:09:07.247Z,100895.84
2018-09-17T04:11:39.211Z,100890.02
2018-09-17T04:14:10.775Z,100894.31
2018-09-17T04:16:42.276Z,100895.48
2018-09-17T04:21:58.305Z,100884.81
2018-09-17T04:24:29.608Z,100880.38
2018-09-17T04:27:01.237Z,100883.09
2018-09-17T04:29:32.749Z,100886.65
2018-09-17T04:32:04.399Z,100880.67
2018-09-17T04:34:35.861Z,100882.20
2018-09-17T04:37:07.532Z,100883.92
2018-09-17T04:39:39.221Z,100889.71
2018-09-17T04:42:10.734Z,100892.96
2018-09-17T04:44:42.203Z,100892.31
2018-09-17T04:47:13.876Z,100897.25
2018-09-17T04:49:44.760Z,100897.27
2018-09-17T04:52:16.422Z,100893.36
2018-09-17T04:54:48.222Z,100908.91
2018-09-17T04:57:19.749Z,100909.24
2018-09-17T04:59:51.303Z,100903.62
2018-09-17T05:02:22.809Z,100911.29
2018-09-17T05:04:54.661Z,100913.66
2018-09-17T05:07:26.263Z,100916.55
2018-09-17T05:09:57.704Z,100923.56
2018-09-17T05:12:29.214Z,100925.25
2018-09-17T05:15:00.777Z,100927.30
2018-09-17T05:17:32.297Z,100922.72
2018-09-17T05:20:03.791Z,100922.56
2018-09-17T05:22:35.304Z,100921.20
2018-09-17T05:25:07.223Z,100918.80
2018-09-17T05:27:39.020Z,100915.18
2018-09-17T05:30:10.658Z,100916.25
2018-09-17T05:32:42.220Z,100912.00
2018-09-17T05:35:13.831Z,100916.73
2018-09-17T05:37:45.226Z,100917.06
2018-09-17T05:40:16.691Z,100919.16
2018-09-17T05:42:48.307Z,100917.44
2018-09-17T05:45:19.845Z,100911.45
2018-09-17T05:47:51.301Z,100919.66
2018-09-17T05:50:22.782Z,100918.45
2018-09-17T05:52:54.422Z,100927.81
2018-09-17T05:55:26.225Z,100927.32
2018-09-17T05:57:58.024Z,100935.16
2018-09-17T06:00:29.956Z,100939.76
2018-09-17T06:03:00.777Z,100940.96
2018-09-17T06:05:32.238Z,100941.97
2018-09-17T06:08:04.277Z,100938.24
2018-09-17T06:10:35.903Z,100935.14
2018-09-17T06:13:07.706Z,100929.85
2018-09-17T06:15:39.030Z,100923.19
2018-09-17T06:18:10.635Z,100927.75
2018-09-17T06:20:42.540Z,100928.39
2018-09-17T06:23:14.041Z,100920.24
2018-09-17T06:25:45.747Z,100919.55
2018-09-17T06:28:17.372Z,100917.30
2018-09-17T06:30:49.225Z,100925.81
2018-09-17T06:33:21.421Z,100925.48
2018-09-17T06:35:53.400Z,100925.80
2018-09-17T06:38:25.206Z,100921.70
2018-09-17T06:40:56.911Z,100928.53
2018-09-17T06:43:27.550Z,100922.17
2018-09-17T06:45:58.983Z,100924.21
2018-09-17T06:48:30.552Z,100929.16
2018-09-17T06:51:01.979Z,100938.39
2018-09-17T06:53:33.703Z,100938.70
2018-09-17T06:58:36.009Z,100946.74
2018-09-17T07:04:00.785Z,100937.81
2018-09-17T07:06:32.433Z,100940.03
2018-09-17T07:09:14.609Z,100934.55
2018-09-17T07:11:46.696Z,100932.52
2018-09-17T07:14:18.405Z,100930.62
2018-09-17T07:16:49.849Z,100919.16
2018-09-17T07:22:08.493Z,100916.44
2018-09-17T07:24:39.679Z,100915.42
2018-09-17T07:27:11.218Z,100906.36
2018-09-17T07:29:42.805Z,100905.65
2018-09-17T07:32:14.313Z,100903.44
2018-09-17T07:34:45.980Z,100905.13
2018-09-17T07:37:17.599Z,100906.81
2018-09-17T07:39:49.216Z,100908.16
2018-09-17T07:42:21.037Z,100909.52
2018-09-17T07:44:52.698Z,100907.31
2018-09-17T07:47:23.981Z,100913.94
2018-09-17T07:49:55.706Z,100914.97
2018-09-17T07:52:27.396Z,100909.67
2018-09-17T07:54:58.739Z,100908.61
2018-09-17T07:57:30.369Z,100906.41
2018-09-17T08:00:01.778Z,100906.57
2018-09-17T08:02:33.363Z,100894.48
2018-09-17T08:05:04.787Z,100898.84
2018-09-17T08:07:36.454Z,100903.97
2018-09-17T08:10:07.792Z,100903.92
2018-09-17T08:12:39.388Z,100897.63
2018-09-17T08:15:10.743Z,100897.04
2018-09-17T08:17:42.309Z,100881.40
2018-09-17T08:20:14.213Z,100891.93
2018-09-17T08:22:45.679Z,100889.52
2018-09-17T08:25:17.205Z,100888.65
2018-09-17T08:27:48.756Z,100889.95
2018-09-17T08:30:20.388Z,100887.05
2018-09-17T08:32:51.751Z,100893.36
2018-09-17T08:35:23.319Z,100892.52
2018-09-17T08:37:54.808Z,100901.73
2018-09-17T08:40:26.278Z,100905.11
2018-09-17T08:42:57.569Z,100899.06
2018-09-17T08:45:29.333Z,100899.55
2018-09-17T08:48:00.784Z,100900.92
2018-09-17T08:50:32.929Z,100900.16
2018-09-17T08:53:03.589Z,100901.01
2018-09-17T08:55:40.581Z,100897.49
2018-09-17T08:58:17.075Z,100907.52
2018-09-17T09:00:53.892Z,100901.24
2018-09-17T09:03:27.672Z,100898.13
2018-09-17T09:06:03.971Z,100897.78
2018-09-17T09:08:35.504Z,100896.21
2018-09-17T09:11:12.209Z,100894.14
2018-09-17T09:14:50.765Z,100896.33
2018-09-17T09:17:22.375Z,100904.47
2018-09-17T09:19:53.822Z,100907.67
2018-09-17T09:22:25.390Z,100903.51
2018-09-17T09:24:56.736Z,100894.89
2018-09-17T09:27:28.392Z,100896.89
2018-09-17T09:29:59.886Z,100890.23
2018-09-17T09:32:30.598Z,100887.67
2018-09-17T09:35:01.974Z,100884.45
2018-09-17T09:37:33.623Z,100877.02
2018-09-17T09:40:05.216Z,100884.81
2018-09-17T09:42:36.773Z,100883.80
2018-09-17T09:45:08.214Z,100871.98
2018-09-17T09:47:39.716Z,100878.32
2018-09-17T09:50:11.237Z,100882.64
2018-09-17T09:52:43.240Z,100880.81
2018-09-17T09:55:14.692Z,100884.42
2018-09-17T09:57:46.320Z,100890.24
2018-09-17T10:00:22.685Z,100890.56
2018-09-17T10:02:58.977Z,100895.13
2018-09-17T10:05:30.828Z,100900.41
2018-09-17T10:08:02.312Z,100897.67
2018-09-17T10:10:38.651Z,100901.44
2018-09-17T10:13:15.209Z,100891.69
2018-09-17T10:15:55.925Z,100881.97
2018-09-17T10:18:31.523Z,100876.11
2018-09-17T10:21:03.010Z,100872.71
2018-09-17T10:23:34.525Z,100870.02
2018-09-17T10:26:05.912Z,100868.96
2018-09-17T10:28:37.346Z,100863.84
2018-09-17T10:31:09.341Z,100858.86
2018-09-17T10:33:40.784Z,100864.55
2018-09-17T10:36:12.213Z,100870.33
2018-09-17T10:38:43.755Z,100863.73
2018-09-17T10:41:14.875Z,100866.47
2018-09-17T10:43:46.391Z,100860.48
2018-09-17T10:46:17.759Z,100852.59
2018-09-17T10:48:49.220Z,100851.57
2018-09-17T10:51:20.747Z,100848.97
2018-09-17T10:53:51.891Z,100845.58
2018-09-17T10:56:22.501Z,100842.83
2018-09-17T10:58:53.896Z,100836.63
2018-09-17T11:01:24.589Z,100834.88
2018-09-17T11:03:56.224Z,100833.52
2018-09-17T11:06:27.682Z,100835.52
2018-09-17T11:08:59.186Z,100832.05
2018-09-17T11:11:30.693Z,100832.01
2018-09-17T11:14:02.226Z,100826.22
2018-09-17T11:16:34.456Z,100824.19
2018-09-17T11:19:05.765Z,100813.19
2018-09-17T11:21:37.292Z,100811.81
2018-09-17T11:24:08.762Z,100807.08
2018-09-17T11:26:40.312Z,100799.59
2018-09-17T11:29:11.738Z,100804.11
2018-09-17T11:31:43.203Z,100805.47
2018-09-17T11:34:14.657Z,100804.84
2018-09-17T11:36:46.062Z,100808.03
2018-09-17T11:39:17.687Z,100806.67
2018-09-17T11:41:49.210Z,100798.61
2018-09-17T11:44:20.697Z,100794.50
2018-09-17T11:46:52.321Z,100794.96
2018-09-17T11:49:23.729Z,100803.02
2018-09-17T11:51:55.320Z,100791.77
2018-09-17T11:54:26.753Z,100796.89
2018-09-17T11:56:58.217Z,100774.77
2018-09-17T11:59:29.724Z,100784.94
2018-09-17T12:02:09.970Z,100771.66
2018-09-17T12:04:46.604Z,100767.88
2018-09-17T12:07:23.241Z,100774.39
2018-09-17T12:09:54.700Z,100773.66
2018-09-17T12:12:26.387Z,100775.69
2018-09-17T12:14:57.757Z,100776.03
2018-09-17T12:17:29.217Z,100775.16
2018-09-17T12:20:00.816Z,100771.27
2018-09-17T12:22:32.480Z,100777.89
2018-09-17T12:25:03.795Z,100771.06
2018-09-17T12:27:35.196Z,100769.91
2018-09-17T12:30:06.998Z,100770.08
2018-09-17T12:32:38.653Z,100765.00
2018-09-17T12:35:10.205Z,100760.05
2018-09-17T12:37:41.717Z,100763.45
2018-09-17T12:40:13.449Z,100763.11
2018-09-17T12:42:44.809Z,100759.67
2018-09-17T12:45:15.833Z,100754.41
2018-09-17T12:47:46.781Z,100747.05
2018-09-17T12:50:18.207Z,100747.58
2018-09-17T12:52:49.887Z,100741.09
2018-09-17T12:55:36.797Z,100743.66
2018-09-17T12:58:08.751Z,100737.00
2018-09-17T13:00:40.324Z,100738.72
2018-09-17T13:03:11.783Z,100735.98
2018-09-17T13:05:42.818Z,100739.41
2018-09-17T13:08:13.765Z,100736.55
2018-09-17T13:10:45.402Z,100738.58
2018-09-17T13:13:16.840Z,100737.73
2018-09-17T13:15:53.804Z,100730.16
2018-09-17T13:18:26.866Z,100729.89
2018-09-17T13:20:58.433Z,100729.01
2018-09-17T13:23:29.990Z,100731.39
2018-09-17T13:26:01.777Z,100731.08
2018-09-17T13:28:33.314Z,100729.32
2018-09-17T13:31:04.780Z,100722.84
2018-09-17T13:33:36.318Z,100729.67
2018-09-17T13:36:07.759Z,100724.52
2018-09-17T13:38:38.842Z,100719.23
2018-09-17T13:41:10.467Z,100723.86
2018-09-17T13:43:41.917Z,100721.97
2018-09-17T13:46:12.651Z,100719.05
2018-09-17T13:48:44.002Z,100720.73
2018-09-17T13:51:15.585Z,100714.95
2018-09-17T13:53:46.952Z,100711.91
2018-09-17T13:56:18.556Z,100714.11
2018-09-17T13:58:50.243Z,100710.33
2018-09-17T14:01:21.718Z,100713.91
2018-09-17T14:03:53.255Z,100712.88
2018-09-17T14:06:24.828Z,100705.39
2018-09-17T14:08:56.427Z,100702.83
2018-09-17T14:11:27.830Z,100704.34
2018-09-17T14:13:59.566Z,100706.57
2018-09-17T14:16:36.010Z,100705.39
2018-09-17T14:19:07.502Z,100699.73
2018-09-17T14:21:38.963Z,100703.49
2018-09-17T14:24:10.616Z,100696.13
2018-09-17T14:26:42.745Z,100691.72
2018-09-17T14:29:13.838Z,100685.55
2018-09-17T14:31:50.242Z,100680.92
2018-09-17T14:34:21.788Z,100684.88
2018-09-17T14:36:54.228Z,100668.88
2018-09-17T14:39:25.736Z,100672.02
2018-09-17T14:41:57.699Z,100667.56
2018-09-17T14:44:29.033Z,100667.04
2018-09-17T14:47:00.635Z,100665.89
2018-09-17T14:49:32.434Z,100665.36
2018-09-17T14:52:03.819Z,100661.26
2018-09-17T14:54:35.235Z,100661.58
2018-09-17T14:57:07.245Z,100658.52
2018-09-17T14:59:38.803Z,100659.19
2018-09-17T15:02:10.338Z,100644.94
2018-09-17T15:04:41.819Z,100648.83
2018-09-17T15:07:13.348Z,100653.98
2018-09-17T15:09:45.324Z,100650.77
2018-09-17T15:12:17.201Z,100654.56
2018-09-17T15:14:48.840Z,100655.00
2018-09-17T15:17:20.443Z,100650.41
2018-09-17T15:19:51.838Z,100651.95
2018-09-17T15:22:23.484Z,100647.55
2018-09-17T15:24:54.887Z,100649.22
2018-09-17T15:27:25.595Z,100646.67
2018-09-17T15:29:57.243Z,100646.67
2018-09-17T15:32:29.317Z,100644.99
2018-09-17T15:35:00.805Z,100645.83
2018-09-17T15:37:32.333Z,100637.63
2018-09-17T15:40:03.805Z,100635.55
2018-09-17T15:42:35.351Z,100632.77
2018-09-17T15:45:06.784Z,100633.41
2018-09-17T15:47:38.235Z,100625.73
2018-09-17T15:50:09.798Z,100626.56
2018-09-17T15:52:41.604Z,100630.67
2018-09-17T15:55:12.885Z,100623.13
2018-09-17T15:57:43.619Z,100622.47
2018-09-17T16:00:14.949Z,100623.70
2018-09-17T16:02:45.591Z,100624.94
2018-09-17T16:05:16.999Z,100619.73
2018-09-17T16:07:48.528Z,100624.17
2018-09-17T16:10:19.846Z,100621.45
2018-09-17T16:12:51.992Z,100621.36
2018-09-17T16:15:23.572Z,100610.37
2018-09-17T16:17:55.257Z,100607.33
2018-09-17T16:20:26.674Z,100609.72
2018-09-17T16:22:58.204Z,100607.33
2018-09-17T16:25:29.817Z,100602.87
2018-09-17T16:28:01.464Z,100604.91
2018-09-17T16:30:32.814Z,100597.75
2018-09-17T16:33:04.320Z,100594.28
2018-09-17T16:35:36.012Z,100600.75
2018-09-17T16:38:07.508Z,100601.77
2018-09-17T16:40:38.911Z,100602.95
2018-09-17T16:43:09.691Z,100605.30
2018-09-17T16:45:41.225Z,100605.73
2018-09-17T16:48:12.680Z,100604.77
2018-09-17T16:50:44.196Z,100610.55
2018-09-17T16:53:15.827Z,100606.45
2018-09-17T16:55:47.317Z,100603.00
2018-09-17T16:58:18.851Z,100611.55
2018-09-17T17:00:50.682Z,100610.50
2018-09-17T17:03:22.208Z,100611.09
2018-09-17T17:05:53.768Z,100611.75
2018-09-17T17:08:24.977Z,100610.20
2018-09-17T17:10:56.503Z,100613.59
2018-09-17T17:13:27.883Z,100611.04
2018-09-17T17:15:58.631Z,100612.22
2018-09-17T17:18:30.274Z,100615.41
2018-09-17T17:21:01.770Z,100619.19
2018-09-17T17:23:33.412Z,100612.66
2018-09-17T17:26:04.791Z,100623.28
2018-09-17T17:28:36.308Z,100623.06
2018-09-17T17:31:07.831Z,100629.25
2018-09-17T17:33:39.436Z,100623.77
2018-09-17T17:36:10.791Z,100627.16
2018-09-17T17:38:43.228Z,100626.33
2018-09-17T17:41:14.730Z,100626.30
2018-09-17T17:43:46.465Z,100628.45
2018-09-17T17:46:18.589Z,100632.30
2018-09-17T17:48:50.245Z,100641.36
2018-09-17T17:51:21.751Z,100639.33
2018-09-17T17:53:52.794Z,100637.65
2018-09-17T17:56:24.200Z,100640.45
2018-09-17T17:58:55.788Z,100641.08
2018-09-17T18:01:27.380Z,100640.33
2018-09-17T18:03:58.830Z,100637.37
2018-09-17T18:06:30.451Z,100648.02
2018-09-17T18:09:02.215Z,100641.48
2018-09-17T18:11:33.727Z,100645.80
2018-09-17T18:14:05.206Z,100648.06
2018-09-17T18:16:36.725Z,100648.47
2018-09-17T18:19:08.210Z,100648.66
2018-09-17T18:21:39.790Z,100645.08
2018-09-17T18:24:11.535Z,100650.67
2018-09-17T18:26:42.879Z,100641.88
2018-09-17T18:29:13.506Z,100642.98
2018-09-17T18:31:44.975Z,100640.70
2018-09-17T18:34:16.516Z,100644.67
2018-09-17T18:36:48.543Z,100642.47
2018-09-17T18:39:20.292Z,100644.05
2018-09-17T18:41:51.729Z,100649.44
2018-09-17T18:44:22.823Z,100650.15
2018-09-17T18:46:54.398Z,100649.12
2018-09-17T18:49:25.896Z,100641.45
2018-09-17T18:51:56.669Z,100648.28
2018-09-17T18:54:27.984Z,100647.94
2018-09-17T18:56:59.595Z,100648.59
2018-09-17T18:59:31.209Z,100650.64
2018-09-17T19:02:02.784Z,100650.69
2018-09-17T19:04:34.503Z,100646.28
2018-09-17T19:07:05.899Z,100650.11
2018-09-17T19:09:41.491Z,100648.09
2018-09-17T19:12:13.387Z,100642.92
2018-09-17T19:14:49.646Z,100645.16
2018-09-17T19:17:26.201Z,100643.67
2018-09-17T19:19:57.932Z,100643.67
2018-09-17T19:22:33.642Z,100647.12
2018-09-17T19:25:05.236Z,100640.33
2018-09-17T19:27:41.733Z,100638.66
2018-09-17T19:30:13.262Z,100638.34
2018-09-17T19:32:44.830Z,100639.09
2018-09-17T19:35:16.433Z,100635.20
2018-09-17T19:37:52.741Z,100638.25
2018-09-17T19:40:24.390Z,100634.11
2018-09-17T19:42:55.828Z,100627.84
2018-09-17T19:45:32.427Z,100629.73
2018-09-17T19:48:03.792Z,100627.40
2018-09-17T19:50:40.199Z,100633.63
2018-09-17T19:53:11.701Z,100634.80
2018-09-17T19:55:43.202Z,100630.45
2018-09-17T19:58:20.207Z,100633.31
2018-09-17T20:00:52.007Z,100636.05
2018-09-17T20:03:23.661Z,100639.22
2018-09-17T20:06:00.302Z,100637.55
2018-09-17T20:08:31.707Z,100640.15
2018-09-17T20:11:03.315Z,100639.84
2018-09-17T20:13:34.727Z,100642.36
2018-09-17T20:16:06.199Z,100633.89
2018-09-17T20:18:37.689Z,100639.31
2018-09-17T20:21:09.555Z,100643.41
2018-09-17T20:23:41.231Z,100635.52
2018-09-17T20:26:12.794Z,100638.59
2018-09-17T20:28:44.436Z,100641.34
2018-09-17T20:31:15.861Z,100638.25
2018-09-17T20:33:46.576Z,100640.02
2018-09-17T20:36:17.989Z,100634.36
2018-09-17T20:38:49.582Z,100628.42
2018-09-17T20:41:20.879Z,100630.84
2018-09-17T20:43:52.350Z,100626.53
2018-09-17T20:46:23.756Z,100621.80
2018-09-17T20:48:55.402Z,100621.67
2018-09-17T20:51:26.784Z,100626.92
2018-09-17T20:53:58.305Z,100622.51
2018-09-17T20:56:29.772Z,100625.77
2018-09-17T20:59:01.301Z,100621.33
2018-09-17T21:01:32.885Z,100618.06
2018-09-17T21:04:04.205Z,100619.95
2018-09-17T21:06:35.769Z,100625.42
2018-09-17T21:09:11.272Z,100622.91
2018-09-17T21:11:42.785Z,100617.19
2018-09-17T21:14:14.282Z,100617.19
2018-09-17T21:16:45.656Z,100618.02
2018-09-17T21:19:17.650Z,100619.39
2018-09-17T21:21:49.245Z,100622.12
2018-09-17T21:24:20.769Z,100619.53
2018-09-17T21:26:52.227Z,100622.80
2018-09-17T21:29:23.730Z,100611.20
2018-09-17T21:31:55.102Z,100612.27
2018-09-17T21:34:26.319Z,100610.89
2018-09-17T21:36:58.657Z,100609.13
2018-09-17T21:39:29.884Z,100607.31
2018-09-17T21:42:00.546Z,100608.47
2018-09-17T21:44:31.870Z,100610.18
2018-09-17T21:47:02.509Z,100603.40
2018-09-17T21:49:33.916Z,100600.00
2018-09-17T21:52:04.576Z,100603.40
2018-09-17T21:54:36.213Z,100603.40
2018-09-17T21:57:07.746Z,100597.80
2018-09-17T21:59:39.288Z,100590.83
2018-09-17T22:02:10.657Z,100599.56
2018-09-17T22:04:42.451Z,100594.75
2018-09-17T22:07:14.399Z,100593.91
2018-09-17T22:09:46.655Z,100593.56
2018-09-17T22:12:18.192Z,100592.59
2018-09-17T22:14:49.644Z,100592.28
2018-09-17T22:17:21.323Z,100594.49
2018-09-17T22:19:52.893Z,100593.78
2018-09-17T22:22:23.567Z,100588.19
2018-09-17T22:24:55.216Z,100595.52
2018-09-17T22:27:26.756Z,100587.84
2018-09-17T22:29:58.404Z,100586.03
2018-09-17T22:32:29.836Z,100588.37
2018-09-17T22:35:01.215Z,100585.81
2018-09-17T22:37:32.793Z,100585.90
2018-09-17T22:40:04.379Z,100586.22
2018-09-17T22:42:36.404Z,100584.84
2018-09-17T22:45:07.772Z,100585.38
2018-09-17T22:47:39.317Z,100586.55
2018-09-17T22:50:10.756Z,100581.45
2018-09-17T22:52:41.776Z,100582.83
2018-09-17T22:55:12.790Z,100587.14
2018-09-17T22:57:44.203Z,100580.05
2018-09-17T23:00:15.716Z,100582.38
2018-09-17T23:02:47.249Z,100584.14
2018-09-17T23:05:18.685Z,100580.22
2018-09-17T23:07:50.208Z,100578.98
2018-09-17T23:10:21.717Z,100575.73
2018-09-17T23:12:53.214Z,100573.47
2018-09-17T23:15:24.706Z,100578.67
2018-09-17T23:17:56.316Z,100579.70
2018-09-17T23:20:27.747Z,100578.33
2018-09-17T23:22:59.313Z,100578.86
2018-09-17T23:25:30.735Z,100576.20
2018-09-17T23:28:02.493Z,100576.52
2018-09-17T23:30:33.843Z,100574.97
2018-09-17T23:33:05.321Z,100572.73
2018-09-17T23:35:36.742Z,100575.47
2018-09-17T23:38:08.218Z,100574.44
2018-09-17T23:40:39.744Z,100571.70
2018-09-17T23:43:11.214Z,100570.00
2018-09-17T23:45:42.760Z,100575.55
2018-09-17T23:48:14.207Z,100564.43
2018-09-17T23:50:45.736Z,100559.67
2018-09-17T23:53:17.333Z,100561.56
2018-09-17T23:55:48.769Z,100560.56
2018-09-17T23:58:20.005Z,100562.27
